Flight Track Log - Related Links

Times and Time Zones

All times are in EDT time to prevent confusion due to time zone crossing. See the N935SS flight status page for this flight to view local times or setup timezone preferences in your user account.

Time Position Orientation Groundspeed Altitude Reporting Facility
EDT Latitude Longitude Course Direction KTS MPH feet Rate Location/Type
Mon 03:18:29 PM 41.0333 -73.7000 270° West 188 216 2,400  Level New York TRACON
Mon 03:19:29 PM 41.0333 -73.7667 270° West 225 259 3,700 2,000 Climbing New York TRACON
Mon 03:20:29 PM 41.0500 -73.8500 285° West 248 285 6,400 1,650 Climbing New York TRACON
Mon 03:21:29 PM 40.9833 -73.9000 210° Southwest 268 308 7,000 1,381 Climbing New York TRACON
Mon 03:22:35 PM 40.9167 -73.9500 210° Southwest 270 311 9,300 2,095 Climbing New York TRACON
Mon 03:23:35 PM 40.8333 -73.9833 197° South 302 348 11,400 1,350 Climbing New York TRACON
Mon 03:24:35 PM 40.7667 -74.0333 210° Southwest 335 386 12,000 316 Climbing New York TRACON
Mon 03:25:29 PM 40.6833 -74.0667 197° South 331 381 12,000 800 Level New York TRACON
Mon 03:26:35 PM 40.5833 -74.1000 194° South 326 375 13,600 1,714 Climbing New York TRACON
Mon 03:27:35 PM 40.5000 -74.1167 189° South 333 383 15,600 1,109 Climbing New York TRACON
Mon 03:29:39 PM 40.3042 -74.1756 193° South 356 410 17,000 457 Climbing New York Center
Mon 03:30:39 PM 40.2097 -74.2008 192° South 350 403 17,000 347 Level New York Center
Mon 03:31:40 PM 40.1172 -74.2233 191° South 350 403 17,700 818 Climbing New York Center
Mon 03:32:07 PM 40.0725 -74.2333 190° South 349 402 18,200 2,069 Climbing Washington Center
Mon 03:33:07 PM 39.9792 -74.2783 200° South 343 395 20,700 2,550 Climbing Washington Center
Mon 03:34:07 PM 39.8989 -74.3528 215° Southwest 348 400 23,300 1,800 Climbing Washington Center
Mon 03:35:07 PM 39.8203 -74.4300 217° Southwest 354 407 24,300 1,300 Climbing Washington Center
Mon 03:36:07 PM 39.7525 -74.5200 226° Southwest 359 413 25,900 1,150 Climbing Washington Center
Mon 03:37:07 PM 39.6886 -74.6044 225° Southwest 345 397 26,600 1,150 Climbing Washington Center
Mon 03:38:07 PM 39.6308 -74.6808 226° Southwest 339 390 28,200 1,600 Climbing Washington Center
Mon 03:39:07 PM 39.5669 -74.7625 225° Southwest 328 377 29,800 1,400 Climbing Washington Center
Mon 03:40:07 PM 39.5028 -74.8492 226° Southwest 328 377 31,000 1,250 Climbing Washington Center
Mon 03:41:07 PM 39.4431 -74.9411 230° Southwest 334 384 32,300 1,250 Climbing Washington Center
Mon 03:42:07 PM 39.3933 -75.0464 239° Southwest 340 391 33,500 1,200 Climbing Washington Center
Mon 03:43:07 PM 39.3461 -75.1542 240° Southwest 340 391 34,700 1,200 Climbing Washington Center
Mon 03:44:07 PM 39.2839 -75.2431 228° Southwest 346 398 35,900 1,200 Climbing Washington Center
Mon 03:45:07 PM 39.2025 -75.2917 205° Southwest 324 373 37,100 1,200 Climbing Washington Center
Mon 03:46:07 PM 39.1214 -75.3456 207° Southwest 324 373 38,300 1,050 Climbing Washington Center
Mon 03:47:07 PM 39.0361 -75.3939 204° Southwest 329 379 39,200 750 Climbing Washington Center
Mon 03:48:07 PM 38.9550 -75.4447 206° Southwest 329 379 39,800 400 Climbing Washington Center
Mon 03:49:07 PM 38.8653 -75.5008 206° Southwest 345 397 40,000 100 Climbing Washington Center
Mon 03:50:07 PM 38.7758 -75.5569 206° Southwest 356 410 40,000  Level Washington Center
Mon 03:51:07 PM 38.6797 -75.6183 207° Southwest 369 425 40,000  Level Washington Center
Mon 03:52:07 PM 38.5817 -75.6767 205° Southwest 380 437 40,000  Level Washington Center
Mon 03:53:07 PM 38.4878 -75.7350 206° Southwest 380 437 40,000  Level Washington Center
Mon 03:54:07 PM 38.3919 -75.7931 205° Southwest 380 437 40,000  Level Washington Center
Mon 03:55:07 PM 38.2958 -75.8483 204° Southwest 380 437 40,000  Level Washington Center
Mon 03:56:07 PM 38.2019 -75.9061 206° Southwest 380 437 40,000 50 Level Washington Center
Mon 03:57:07 PM 38.1039 -75.9611 204° Southwest 380 437 40,100 500 Climbing Washington Center
Mon 03:58:07 PM 38.0119 -76.0214 207° Southwest 380 437 41,000 800 Climbing Washington Center
Mon 03:59:07 PM 37.9197 -76.0761 205° Southwest 380 437 41,700 750 Climbing Washington Center
Mon 04:00:07 PM 37.8258 -76.1308 205° Southwest 380 437 42,500 650 Climbing Washington Center
Mon 04:01:07 PM 37.7336 -76.1878 206° Southwest 380 437 43,000 250 Climbing Washington Center
Mon 04:02:07 PM 37.6397 -76.2447 206° Southwest 380 437 43,000  Level Washington Center
Mon 04:03:07 PM 37.5308 -76.3094 205° Southwest 380 437 43,000  Level Washington Center
Mon 04:04:07 PM 37.4428 -76.3608 205° Southwest 385 443 43,000  Level Washington Center
Mon 04:05:07 PM 37.3422 -76.4172 204° Southwest 385 443 43,000  Level Washington Center
Mon 04:06:07 PM 37.2417 -76.4789 206° Southwest 385 443 43,000  Level Washington Center
Mon 04:07:07 PM 37.1411 -76.5403 206° Southwest 390 449 43,000  Level Washington Center
Mon 04:08:07 PM 37.0406 -76.5989 205° Southwest 395 455 43,000  Level Washington Center
Mon 04:09:07 PM 36.9400 -76.6600 206° Southwest 400 460 43,000  Level Washington Center
Mon 04:10:07 PM 36.8392 -76.7156 204° Southwest 405 466 43,000  Level Washington Center
Mon 04:11:07 PM 36.7386 -76.7764 206° Southwest 405 466 43,000  Level Washington Center
Mon 04:12:07 PM 36.6378 -76.8344 205° Southwest 399 459 43,000  Level Washington Center
Mon 04:13:07 PM 36.5392 -76.8922 205° Southwest 399 459 43,000  Level Washington Center
Mon 04:14:07 PM 36.4278 -76.9575 205° Southwest 404 465 43,000  Level Washington Center
Mon 04:15:07 PM 36.3269 -77.0150 205° Southwest 404 465 43,000  Level Washington Center
Mon 04:16:07 PM 36.2283 -77.0725 205° Southwest 404 465 43,000  Level Washington Center
Mon 04:17:07 PM 36.1253 -77.1297 204° Southwest 404 465 43,000  Level Washington Center
Mon 04:18:07 PM 36.0392 -77.1819 206° Southwest 398 458 43,000  Level Washington Center
Mon 04:19:07 PM 35.9381 -77.2389 205° Southwest 398 458 43,000  Level Washington Center
Mon 04:20:07 PM 35.8331 -77.2983 205° Southwest 403 464 43,000  Level Washington Center
Mon 04:21:07 PM 35.7319 -77.3550 204° Southwest 403 464 43,000  Level Washington Center
Mon 04:22:07 PM 35.6289 -77.4142 205° Southwest 403 464 43,000  Level Washington Center
Mon 04:23:07 PM 35.5258 -77.4703 204° Southwest 403 464 43,000  Level Washington Center
Mon 04:24:07 PM 35.4206 -77.5292 205° Southwest 403 464 43,000  Level Washington Center
Mon 04:25:07 PM 35.3256 -77.6006 212° Southwest 403 464 43,000  Level Washington Center
Mon 04:26:07 PM 35.2383 -77.6925 221° Southwest 408 470 43,000  Level Washington Center
Mon 04:27:07 PM 35.1556 -77.7794 221° Southwest 408 470 43,000  Level Washington Center
Mon 04:28:07 PM 35.0703 -77.8683 220° Southwest 408 470 43,000  Level Washington Center
Mon 04:29:07 PM 34.9831 -77.9547 219° Southwest 408 470 43,000  Level Washington Center
Mon 04:30:07 PM 34.9000 -78.0433 221° Southwest 413 475 43,000  Level Washington Center
Mon 04:31:07 PM 34.8081 -78.1444 222° Southwest 413 475 43,000  Level Washington Center
Mon 04:32:07 PM 34.7228 -78.2325 220° Southwest 408 470 43,000  Level Washington Center
Mon 04:33:07 PM 34.6372 -78.3233 221° Southwest 408 470 43,000  Level Washington Center
Mon 04:34:09 PM 34.5553 -78.4003 218° Southwest 412 474 43,000  Level Jacksonville Center
Mon 04:35:09 PM 34.4689 -78.4878 220° Southwest 412 474 43,000  Level Jacksonville Center
Mon 04:36:09 PM 34.3842 -78.5753 220° Southwest 412 474 43,000  Level Jacksonville Center
Mon 04:37:09 PM 34.2994 -78.6625 220° Southwest 412 474 43,000  Level Jacksonville Center
Mon 04:38:09 PM 34.2128 -78.7469 219° Southwest 412 474 43,000  Level Jacksonville Center
Mon 04:39:09 PM 34.1258 -78.8339 220° Southwest 412 474 43,000  Level Jacksonville Center
Mon 04:40:09 PM 34.0344 -78.9158 217° Southwest 417 480 43,000  Level Jacksonville Center
Mon 04:41:09 PM 33.9431 -78.9925 215° Southwest 412 474 43,000  Level Jacksonville Center
Mon 04:42:09 PM 33.8517 -79.0742 217° Southwest 407 468 43,000  Level Jacksonville Center
Mon 04:43:09 PM 33.7581 -79.1506 214° Southwest 412 474 43,000  Level Jacksonville Center
Mon 04:44:09 PM 33.6603 -79.2344 216° Southwest 413 475 43,000  Level Jacksonville Center
Mon 04:45:09 PM 33.5667 -79.3158 216° Southwest 413 475 43,000  Level Jacksonville Center
Mon 04:46:09 PM 33.4747 -79.3917 215° Southwest 418 481 43,000  Level Jacksonville Center
Mon 04:47:09 PM 33.3831 -79.4722 216° Southwest 418 481 43,000  Level Jacksonville Center
Mon 04:48:09 PM 33.2892 -79.5506 215° Southwest 418 481 43,000  Level Jacksonville Center
Mon 04:49:09 PM 33.1953 -79.6308 216° Southwest 418 481 43,000  Level Jacksonville Center
Mon 04:50:09 PM 33.1033 -79.7086 215° Southwest 418 481 43,000  Level Jacksonville Center
Mon 04:51:09 PM 33.0094 -79.7864 215° Southwest 418 481 43,000  Level Jacksonville Center
Mon 04:52:09 PM 32.9153 -79.8639 215° Southwest 418 481 43,000  Level Jacksonville Center
Mon 04:53:09 PM 32.8314 -79.9358 216° Southwest 418 481 43,000  Level Jacksonville Center
Mon 04:54:09 PM 32.7372 -80.0131 215° Southwest 418 481 43,000  Level Jacksonville Center
Mon 04:55:09 PM 32.6428 -80.0950 216° Southwest 418 481 43,000  Level Jacksonville Center
Mon 04:56:09 PM 32.5506 -80.1717 215° Southwest 418 481 43,000  Level Jacksonville Center
Mon 04:57:09 PM 32.4583 -80.2483 215° Southwest 418 481 43,000  Level Jacksonville Center
Mon 04:58:09 PM 32.3661 -80.3272 216° Southwest 418 481 43,000  Level Jacksonville Center
Mon 04:59:09 PM 32.2717 -80.4061 215° Southwest 418 481 43,000  Level Jacksonville Center
Mon 05:00:09 PM 32.1792 -80.4822 215° Southwest 418 481 43,000  Level Jacksonville Center
Mon 05:01:09 PM 32.0908 -80.5556 215° Southwest 403 464 43,000  Level Jacksonville Center
Mon 05:02:09 PM 31.9858 -80.6417 215° Southwest 408 470 43,000  Level Jacksonville Center
Mon 05:03:09 PM 31.8803 -80.7006 205° Southwest 413 475 43,000  Level Jacksonville Center
Mon 05:04:09 PM 31.7808 -80.7347 196° South 421 484 43,000  Level Jacksonville Center
Mon 05:05:09 PM 31.6561 -80.7814 198° South 426 490 43,000  Level Jacksonville Center
Mon 05:06:09 PM 31.5567 -80.8178 197° South 426 490 43,000  Level Jacksonville Center
Mon 05:07:09 PM 31.4300 -80.8619 197° South 426 490 43,000  Level Jacksonville Center
Mon 05:08:09 PM 31.3181 -80.9058 199° South 426 490 43,000  Level Jacksonville Center
Mon 05:09:09 PM 31.2039 -80.9494 198° South 420 483 43,000 -700 Level Jacksonville Center
Mon 05:10:09 PM 31.0917 -80.9906 197° South 426 490 41,600 -1,700 Descending Jacksonville Center
Mon 05:11:09 PM 30.9733 -81.0342 198° South 437 503 39,600 -1,950 Descending Jacksonville Center
Mon 05:12:09 PM 30.8569 -81.0728 196° South 437 503 37,700 -1,950 Descending Jacksonville Center
Mon 05:13:09 PM 30.7406 -81.1161 198° South 437 503 35,700 -1,850 Descending Jacksonville Center
Mon 05:14:09 PM 30.6222 -81.1522 195° South 437 503 34,000 -850 Descending Jacksonville Center
Mon 05:15:09 PM 30.4969 -81.1519 180° South 437 503 34,000  Level Jacksonville Center
Mon 05:16:09 PM 30.3694 -81.1447 177° South 448 516 34,000  Level Jacksonville Center
Mon 05:17:09 PM 30.2419 -81.1422 179° South 460 529 34,000 -50 Level Jacksonville Center
Mon 05:18:09 PM 30.1125 -81.1372 178° South 460 529 33,900 -1,050 Descending Jacksonville Center
Mon 05:19:09 PM 29.9850 -81.1325 178° South 460 529 31,900 -2,300 Descending Jacksonville Center
Mon 05:20:09 PM 29.8578 -81.1300 179° South 460 529 29,300 -2,600 Descending Jacksonville Center
Mon 05:21:09 PM 29.7325 -81.1275 179° South 455 524 26,700 -2,550 Descending Jacksonville Center
Mon 05:22:09 PM 29.6072 -81.1250 179° South 455 524 24,200 -2,450 Descending Jacksonville Center
Mon 05:23:09 PM 29.4903 -81.1222 179° South 450 518 21,800 -3,100 Descending Jacksonville Center
Mon 05:24:09 PM 29.3733 -81.1197 179° South 431 496 18,000 -1,900 Descending Jacksonville Center
Mon 05:25:09 PM 29.2603 -81.1003 171° South 425 489 18,000  Level Jacksonville Center
Mon 05:26:09 PM 29.1511 -81.0522 159° South 409 471 18,000  Level Jacksonville Center
Mon 05:28:16 PM 28.9225 -80.9539 159° South 424 488 18,000  Level Miami Center
Mon 05:29:16 PM 28.8153 -80.9025 157° South 419 482 18,000  Level Miami Center
Mon 05:30:16 PM 28.7125 -80.8492 156° South 414 476 18,000  Level Miami Center
Mon 05:31:16 PM 28.6056 -80.7981 157° South 414 476 18,000  Level Miami Center
Mon 05:32:16 PM 28.5025 -80.7472 157° South 414 476 18,000  Level Miami Center
Mon 05:33:16 PM 28.4100 -80.7014 156° South 414 476 18,000  Level Miami Center
Mon 05:34:16 PM 28.2967 -80.6433 156° South 409 471 18,000  Level Miami Center
Mon 05:35:16 PM 28.1936 -80.5928 157° South 409 471 18,000 -700 Level Miami Center
Mon 05:36:16 PM 28.1031 -80.5475 156° South 409 471 16,600 -1,550 Descending Miami Center
Mon 05:37:16 PM 28.0019 -80.4969 156° South 401 461 14,900 -1,800 Descending Miami Center
Mon 05:38:16 PM 27.9072 -80.4517 157° South 387 445 13,000 -2,000 Descending Miami Center
Mon 05:39:16 PM 27.8081 -80.4017 156° South 363 418 10,900 -1,650 Descending Miami Center
Mon 05:40:16 PM 27.7297 -80.3642 157° South 332 382 9,700 -1,300 Descending Miami Center
Mon 05:41:16 PM 27.6617 -80.3314 157° South 306 352 8,300 -1,550 Descending Miami Center
Mon 05:42:16 PM 27.5811 -80.2917 156° South 289 333 6,600 -1,200 Descending Miami Center
Mon 05:43:16 PM 27.5069 -80.2567 157° South 289 333 5,900 -650 Descending Miami Center
Mon 05:44:16 PM 27.4347 -80.2217 157° South 289 333 5,300 -800 Descending Miami Center
Mon 05:45:16 PM 27.3686 -80.1894 157° South 289 333 4,300 -700 Descending Miami Center
Mon 05:46:16 PM 27.3067 -80.1572 155° Southeast 273 314 3,900 -1,050 Descending Miami Center
Mon 05:47:16 PM 27.2403 -80.1342 163° South 227 261 2,200 -1,200 Descending Miami Center
Mon 05:48:16 PM 27.1842 -80.1256 172° South 222 255 1,500 -353 Descending Miami Center
Mon 05:49:15 PM 27.1564 -80.1600 228° Southwest 158 182 1,500 -450 Level Miami Center
Mon 05:50:16 PM 27.1681 -80.1906 293° West 124 143 600 8,182 Descending Miami Center
Mon 05:51:16 PM 27.1506 -80.2275 242° Southwest 124 143 18,000 8,700 Climbing Miami Center
Mon 05:52:16 PM 27.1392 -80.2622 250° West 124 143 18,000  Level Miami Center

Login

Don't have an account? Register now (free) for customized features, flight alerts, and more!